createdAt,value
2019-01-26T00:01:05.037Z,26.10
2019-01-26T00:02:13.547Z,27.82
2019-01-26T00:03:20.213Z,25.30
2019-01-26T00:04:26.857Z,27.10
2019-01-26T00:05:33.521Z,27.37
2019-01-26T00:06:40.293Z,29.75
2019-01-26T00:07:47.277Z,29.45
2019-01-26T00:08:53.993Z,28.25
2019-01-26T00:10:01.033Z,27.02
2019-01-26T00:11:08.232Z,27.42
2019-01-26T00:12:14.897Z,27.95
2019-01-26T00:13:21.640Z,28.10
2019-01-26T00:14:28.286Z,27.20
2019-01-26T00:15:35.130Z,28.07
2019-01-26T00:16:42.016Z,30.95
2019-01-26T00:17:48.693Z,25.32
2019-01-26T00:18:55.744Z,31.35
2019-01-26T00:20:02.449Z,29.40
2019-01-26T00:21:09.113Z,29.95
2019-01-26T00:22:16.020Z,29.95
2019-01-26T00:23:22.993Z,29.35
2019-01-26T00:24:29.727Z,30.43
2019-01-26T00:25:36.418Z,30.55
2019-01-26T00:26:43.117Z,30.95
2019-01-26T00:27:49.971Z,31.90
2019-01-26T00:28:56.666Z,30.60
2019-01-26T00:30:03.386Z,31.05
2019-01-26T00:31:10.098Z,31.62
2019-01-26T00:32:17.159Z,32.77
2019-01-26T00:33:24.522Z,32.45
2019-01-26T00:34:31.172Z,34.43
2019-01-26T00:35:38.299Z,32.45
2019-01-26T00:36:45.272Z,35.23
2019-01-26T00:37:51.949Z,35.30
2019-01-26T00:38:58.685Z,34.75
2019-01-26T00:40:06.848Z,38.10
2019-01-26T00:41:13.826Z,37.40
2019-01-26T00:42:20.952Z,35.73
2019-01-26T00:43:27.669Z,36.85
2019-01-26T00:44:34.402Z,40.60
2019-01-26T00:45:41.454Z,42.35
2019-01-26T00:46:48.202Z,42.83
2019-01-26T00:47:55.197Z,40.92
2019-01-26T00:49:02.170Z,37.80
2019-01-26T00:50:09.682Z,38.83
2019-01-26T00:51:17.333Z,36.95
2019-01-26T00:52:24.399Z,39.70
2019-01-26T00:53:31.445Z,38.78
2019-01-26T00:54:38.149Z,36.40
2019-01-26T00:55:45.082Z,39.48
2019-01-26T00:56:52.135Z,37.13
2019-01-26T00:57:58.862Z,42.15
2019-01-26T00:59:05.669Z,40.43
2019-01-26T01:00:15.651Z,40.58
2019-01-26T01:01:22.331Z,40.80
2019-01-26T01:02:29.596Z,40.83
2019-01-26T01:03:36.422Z,43.78
2019-01-26T01:04:43.104Z,43.15
2019-01-26T01:05:49.822Z,46.45
2019-01-26T01:06:56.577Z,46.40
2019-01-26T01:08:03.235Z,43.30
2019-01-26T01:09:11.197Z,43.75
2019-01-26T01:10:19.145Z,47.88
2019-01-26T01:11:25.851Z,48.60
2019-01-26T01:12:32.681Z,46.50
2019-01-26T01:13:39.893Z,52.20
2019-01-26T01:14:46.571Z,51.13
2019-01-26T01:15:53.638Z,54.18
2019-01-26T01:17:00.899Z,52.43
2019-01-26T01:18:07.989Z,52.48
2019-01-26T01:19:14.650Z,52.00
2019-01-26T01:20:22.125Z,55.97
2019-01-26T01:21:29.358Z,56.58
2019-01-26T01:22:36.109Z,57.65
2019-01-26T01:23:43.330Z,58.55
2019-01-26T01:24:50.480Z,66.53
2019-01-26T01:25:57.184Z,70.92
2019-01-26T01:27:03.902Z,60.67
2019-01-26T01:28:10.599Z,65.10
2019-01-26T01:29:17.320Z,55.78
2019-01-26T01:30:24.261Z,66.65
2019-01-26T01:31:31.273Z,64.63
2019-01-26T01:32:37.957Z,62.73
2019-01-26T01:33:44.671Z,65.83
2019-01-26T01:34:51.331Z,67.75
2019-01-26T01:35:58.101Z,68.47
2019-01-26T01:37:05.108Z,65.80
2019-01-26T01:38:11.834Z,60.88
2019-01-26T01:39:18.897Z,67.78
2019-01-26T01:40:25.664Z,69.20
2019-01-26T01:41:32.354Z,69.55
2019-01-26T01:42:39.043Z,67.53
2019-01-26T01:43:46.064Z,64.40
2019-01-26T01:44:52.833Z,64.80
2019-01-26T01:45:59.527Z,62.08
2019-01-26T01:47:06.174Z,62.00
2019-01-26T01:48:12.839Z,61.35
2019-01-26T01:49:19.591Z,62.23
2019-01-26T01:50:26.589Z,63.08
2019-01-26T01:51:33.289Z,58.87
2019-01-26T01:52:39.983Z,57.67
2019-01-26T01:53:46.721Z,54.98
2019-01-26T01:54:53.393Z,61.20
2019-01-26T01:56:00.489Z,60.48
2019-01-26T01:57:07.258Z,61.42
2019-01-26T01:58:13.925Z,61.02
2019-01-26T01:59:20.624Z,58.23
2019-01-26T02:00:27.777Z,58.30
2019-01-26T02:01:34.480Z,60.58
2019-01-26T02:02:41.245Z,57.25
2019-01-26T02:03:47.917Z,55.70
2019-01-26T02:04:54.664Z,57.47
2019-01-26T02:06:01.402Z,57.10
2019-01-26T02:07:08.760Z,52.20
2019-01-26T02:08:15.487Z,55.92
2019-01-26T02:09:22.141Z,56.58
2019-01-26T02:10:29.156Z,51.75
2019-01-26T02:11:35.854Z,53.10
2019-01-26T02:12:42.629Z,53.68
2019-01-26T02:13:49.392Z,54.42
2019-01-26T02:14:56.774Z,53.68
2019-01-26T02:16:03.505Z,54.17
2019-01-26T02:17:10.321Z,54.30
2019-01-26T02:18:17.115Z,50.95
2019-01-26T02:19:24.096Z,50.33
2019-01-26T02:20:30.803Z,51.65
2019-01-26T02:21:38.114Z,50.12
2019-01-26T02:22:45.497Z,55.28
2019-01-26T02:23:52.576Z,53.90
2019-01-26T02:24:59.758Z,54.00
2019-01-26T02:26:06.430Z,56.25
2019-01-26T02:27:13.138Z,55.10
2019-01-26T02:28:19.822Z,49.80
2019-01-26T02:29:26.545Z,54.47
2019-01-26T02:30:33.344Z,51.10
2019-01-26T02:31:40.010Z,53.13
2019-01-26T02:32:46.674Z,53.70
2019-01-26T02:33:53.921Z,52.55
2019-01-26T02:35:00.595Z,53.68
2019-01-26T02:36:07.540Z,53.37
2019-01-26T02:37:14.228Z,54.63
2019-01-26T02:38:20.890Z,52.73
2019-01-26T02:39:28.310Z,52.45
2019-01-26T02:40:35.841Z,54.03
2019-01-26T02:41:42.714Z,50.90
2019-01-26T02:42:49.751Z,49.98
2019-01-26T02:43:56.402Z,48.90
2019-01-26T02:45:03.113Z,49.30
2019-01-26T02:46:09.806Z,51.02
2019-01-26T02:47:16.529Z,50.65
2019-01-26T02:48:23.579Z,50.43
2019-01-26T02:49:30.625Z,49.35
2019-01-26T02:50:37.304Z,53.73
2019-01-26T02:51:44.309Z,49.65
2019-01-26T02:52:51.170Z,48.70
2019-01-26T02:53:57.915Z,50.60
2019-01-26T02:55:05.575Z,52.20
2019-01-26T02:56:12.586Z,46.80
2019-01-26T02:57:19.233Z,44.40
2019-01-26T02:58:26.306Z,49.58
2019-01-26T02:59:32.966Z,48.58
2019-01-26T03:00:39.679Z,47.23
2019-01-26T03:01:46.548Z,47.07
2019-01-26T03:02:53.585Z,49.53
2019-01-26T03:04:00.343Z,47.90
2019-01-26T03:05:08.744Z,49.20
2019-01-26T03:06:15.764Z,47.85
2019-01-26T03:07:22.986Z,47.85
2019-01-26T03:08:29.689Z,48.50
2019-01-26T03:09:36.536Z,45.83
2019-01-26T03:10:43.509Z,45.45
2019-01-26T03:11:50.486Z,48.02
2019-01-26T03:12:57.203Z,48.25
2019-01-26T03:14:03.844Z,47.80
2019-01-26T03:15:13.405Z,46.20
2019-01-26T03:16:20.123Z,46.60
2019-01-26T03:17:27.089Z,45.97
2019-01-26T03:18:34.106Z,45.13
2019-01-26T03:19:40.748Z,49.15
2019-01-26T03:20:47.983Z,44.73
2019-01-26T03:21:54.984Z,44.38
2019-01-26T03:23:02.079Z,44.13
2019-01-26T03:24:09.189Z,45.17
2019-01-26T03:25:16.788Z,41.40
2019-01-26T03:26:23.464Z,44.03
2019-01-26T03:27:30.453Z,45.63
2019-01-26T03:28:37.108Z,48.60
2019-01-26T03:29:43.829Z,44.17
2019-01-26T03:30:50.810Z,45.50
2019-01-26T03:31:57.496Z,45.27
2019-01-26T03:33:04.168Z,45.88
2019-01-26T03:34:10.869Z,44.98
2019-01-26T03:35:18.093Z,46.57
2019-01-26T03:36:24.829Z,47.00
2019-01-26T03:37:31.483Z,48.23
2019-01-26T03:38:38.549Z,46.80
2019-01-26T03:39:45.545Z,46.17
2019-01-26T03:40:53.215Z,47.03
2019-01-26T03:41:59.923Z,48.20
2019-01-26T03:43:06.992Z,48.85
2019-01-26T03:44:13.983Z,46.93
2019-01-26T03:45:21.009Z,47.73
2019-01-26T03:46:27.756Z,51.87
2019-01-26T03:47:35.074Z,48.33
2019-01-26T03:48:41.792Z,51.93
2019-01-26T03:49:48.464Z,51.27
2019-01-26T03:50:55.171Z,50.60
2019-01-26T03:52:01.823Z,53.07
2019-01-26T03:53:08.529Z,52.67
2019-01-26T03:54:15.185Z,53.15
2019-01-26T03:55:23.100Z,52.67
2019-01-26T03:56:29.954Z,50.50
2019-01-26T03:57:37.230Z,53.03
2019-01-26T03:58:44.206Z,52.40
2019-01-26T03:59:51.216Z,51.80
2019-01-26T04:00:58.410Z,54.10
2019-01-26T04:02:11.278Z,52.40
2019-01-26T04:03:17.975Z,52.20
2019-01-26T04:04:25.201Z,53.10
2019-01-26T04:05:31.936Z,52.65
2019-01-26T04:06:38.592Z,51.40
2019-01-26T04:07:45.328Z,48.70
2019-01-26T04:08:52.090Z,51.53
2019-01-26T04:09:58.823Z,49.57
2019-01-26T04:11:05.539Z,53.37
2019-01-26T04:12:12.287Z,51.68
2019-01-26T04:13:18.952Z,51.10
2019-01-26T04:14:26.192Z,51.90
2019-01-26T04:15:33.074Z,47.40
2019-01-26T04:16:39.792Z,48.90
2019-01-26T04:17:46.755Z,46.77
2019-01-26T04:18:53.941Z,46.80
2019-01-26T04:20:00.669Z,45.95
2019-01-26T04:21:07.381Z,48.17
2019-01-26T04:22:14.122Z,48.73
2019-01-26T04:23:21.425Z,45.67
2019-01-26T04:24:28.841Z,44.60
2019-01-26T04:25:36.078Z,45.63
2019-01-26T04:26:42.984Z,44.53
2019-01-26T04:27:49.635Z,45.23
2019-01-26T04:28:56.315Z,47.33
2019-01-26T04:30:03.041Z,45.23
2019-01-26T04:31:09.732Z,44.10
2019-01-26T04:32:16.457Z,43.13
2019-01-26T04:33:23.393Z,44.40
2019-01-26T04:34:30.136Z,43.20
2019-01-26T04:35:36.838Z,39.90
2019-01-26T04:36:43.918Z,43.23
2019-01-26T04:37:50.596Z,41.37
2019-01-26T04:38:57.287Z,41.35
2019-01-26T04:40:04.034Z,43.47
2019-01-26T04:41:10.683Z,41.67
2019-01-26T04:42:17.358Z,42.00
2019-01-26T04:43:24.464Z,40.60
2019-01-26T04:44:31.146Z,40.50
2019-01-26T04:45:38.213Z,42.67
2019-01-26T04:46:45.035Z,39.40
2019-01-26T04:47:51.708Z,39.57
2019-01-26T04:48:58.393Z,38.67
2019-01-26T04:50:07.001Z,42.67
2019-01-26T04:51:13.782Z,41.17
2019-01-26T04:52:20.508Z,40.90
2019-01-26T04:53:27.589Z,39.43
2019-01-26T04:54:34.603Z,41.17
2019-01-26T04:55:41.576Z,40.23
2019-01-26T04:56:48.228Z,40.30
2019-01-26T04:57:55.233Z,41.00
2019-01-26T04:59:01.950Z,40.43
2019-01-26T05:00:14.934Z,38.85
2019-01-26T05:01:21.941Z,38.77
2019-01-26T05:02:29.293Z,37.63
2019-01-26T05:03:36.007Z,41.00
2019-01-26T05:04:43.316Z,39.90
2019-01-26T05:05:50.342Z,43.07
2019-01-26T05:06:57.256Z,41.67
2019-01-26T05:08:03.925Z,41.47
2019-01-26T05:09:11.199Z,41.67
2019-01-26T05:10:19.103Z,44.10
2019-01-26T05:11:25.762Z,40.07
2019-01-26T05:12:32.760Z,41.83
2019-01-26T05:13:39.752Z,41.80
2019-01-26T05:14:47.501Z,39.60
2019-01-26T05:15:54.175Z,42.17
2019-01-26T05:17:01.214Z,37.90
2019-01-26T05:18:08.609Z,38.93
2019-01-26T05:19:15.541Z,41.03
2019-01-26T05:20:25.291Z,41.57
2019-01-26T05:21:31.972Z,41.30
2019-01-26T05:22:38.630Z,38.20
2019-01-26T05:23:45.899Z,41.30
2019-01-26T05:24:52.598Z,42.67
2019-01-26T05:25:59.280Z,38.67
2019-01-26T05:27:06.068Z,38.83
2019-01-26T05:28:12.904Z,39.70
2019-01-26T05:29:19.589Z,40.03
2019-01-26T05:30:29.794Z,40.25
2019-01-26T05:31:36.573Z,36.93
2019-01-26T05:32:43.319Z,39.60
2019-01-26T05:33:50.190Z,40.17
2019-01-26T05:34:57.190Z,39.03
2019-01-26T05:36:03.853Z,36.53
2019-01-26T05:37:11.031Z,38.37
2019-01-26T05:38:17.681Z,39.20
2019-01-26T05:39:24.408Z,39.53
2019-01-26T05:40:31.078Z,38.40
2019-01-26T05:41:37.819Z,35.33
2019-01-26T05:42:44.465Z,36.40
2019-01-26T05:43:51.482Z,39.20
2019-01-26T05:44:58.514Z,35.17
2019-01-26T05:46:05.407Z,35.33
2019-01-26T05:47:12.498Z,37.13
2019-01-26T05:48:19.299Z,34.90
2019-01-26T05:49:26.028Z,33.87
2019-01-26T05:50:32.677Z,34.30
2019-01-26T05:51:39.339Z,36.90
2019-01-26T05:52:46.319Z,32.77
2019-01-26T05:53:53.060Z,34.70
2019-01-26T05:54:59.783Z,34.58
2019-01-26T05:56:07.394Z,34.80
2019-01-26T05:57:14.381Z,32.93
2019-01-26T05:58:21.012Z,35.70
2019-01-26T05:59:28.301Z,33.53
2019-01-26T06:00:36.327Z,31.40
2019-01-26T06:01:43.707Z,30.57
2019-01-26T06:02:50.454Z,32.95
2019-01-26T06:03:57.285Z,31.47
2019-01-26T06:05:04.313Z,32.17
2019-01-26T06:06:11.388Z,32.55
2019-01-26T06:07:18.359Z,32.30
2019-01-26T06:08:25.039Z,30.10
2019-01-26T06:09:32.105Z,29.40
2019-01-26T06:10:38.793Z,30.10
2019-01-26T06:11:45.499Z,28.20
2019-01-26T06:12:52.315Z,27.20
2019-01-26T06:13:59.000Z,28.50
2019-01-26T06:15:06.989Z,30.63
2019-01-26T06:16:13.651Z,28.47
2019-01-26T06:17:20.777Z,28.52
2019-01-26T06:18:27.912Z,26.27
2019-01-26T06:19:34.884Z,26.70
2019-01-26T06:20:41.844Z,26.93
2019-01-26T06:21:48.831Z,24.93
2019-01-26T06:22:55.765Z,27.73
2019-01-26T06:24:02.497Z,25.88
2019-01-26T06:25:11.213Z,25.30
2019-01-26T06:26:18.053Z,26.10
2019-01-26T06:27:24.761Z,24.55
2019-01-26T06:28:31.440Z,26.50
2019-01-26T06:29:39.215Z,24.73
2019-01-26T06:30:46.361Z,24.10
2019-01-26T06:31:53.068Z,25.10
2019-01-26T06:33:00.279Z,23.03
2019-01-26T06:34:06.974Z,22.60
2019-01-26T06:35:14.230Z,23.60
2019-01-26T06:36:21.167Z,25.67
2019-01-26T06:37:27.807Z,23.03
2019-01-26T06:38:34.779Z,23.60
2019-01-26T06:39:42.374Z,22.27
2019-01-26T06:40:49.066Z,23.70
2019-01-26T06:41:55.809Z,22.80
2019-01-26T06:43:02.592Z,23.97
2019-01-26T06:44:09.598Z,24.67
2019-01-26T06:45:19.010Z,21.87
2019-01-26T06:46:25.689Z,22.40
2019-01-26T06:47:32.656Z,22.80
2019-01-26T06:48:40.067Z,21.93
2019-01-26T06:49:47.118Z,24.60
2019-01-26T06:50:54.197Z,22.60
2019-01-26T06:52:01.175Z,20.93
2019-01-26T06:53:07.837Z,22.67
2019-01-26T06:54:14.534Z,22.33
2019-01-26T06:55:21.308Z,22.33
2019-01-26T06:56:28.404Z,23.00
2019-01-26T06:57:35.067Z,22.23
2019-01-26T06:58:42.347Z,20.93
2019-01-26T06:59:49.028Z,22.37
2019-01-26T07:00:55.922Z,23.60
2019-01-26T07:02:02.926Z,22.23
2019-01-26T07:03:09.646Z,20.77
2019-01-26T07:04:25.001Z,22.00
2019-01-26T07:05:49.287Z,20.63
2019-01-26T07:07:11.799Z,20.83
2019-01-26T07:08:20.004Z,22.43
2019-01-26T07:09:27.597Z,21.20
2019-01-26T07:10:34.321Z,22.20
2019-01-26T07:11:41.021Z,22.37
2019-01-26T07:12:48.209Z,22.20
2019-01-26T07:13:55.606Z,25.70
2019-01-26T07:15:02.271Z,22.73
2019-01-26T07:16:09.303Z,24.27
2019-01-26T07:17:16.002Z,24.30
2019-01-26T07:18:22.845Z,22.60
2019-01-26T07:19:29.550Z,22.97
2019-01-26T07:20:36.245Z,23.90
2019-01-26T07:21:43.005Z,24.73
2019-01-26T07:22:49.844Z,21.47
2019-01-26T07:23:57.047Z,22.90
2019-01-26T07:25:03.840Z,21.70
2019-01-26T07:26:10.802Z,24.10
2019-01-26T07:27:17.498Z,24.90
2019-01-26T07:28:24.759Z,24.70
2019-01-26T07:29:31.489Z,24.20
2019-01-26T07:30:38.531Z,24.80
2019-01-26T07:31:45.229Z,26.23
2019-01-26T07:32:52.142Z,24.47
2019-01-26T07:33:59.151Z,25.00
2019-01-26T07:35:06.732Z,22.20
2019-01-26T07:36:13.376Z,22.23
2019-01-26T07:37:20.107Z,23.83
2019-01-26T07:38:27.145Z,23.10
2019-01-26T07:39:34.204Z,22.20
2019-01-26T07:40:41.373Z,23.57
2019-01-26T07:41:48.085Z,24.70
2019-01-26T07:42:54.818Z,22.27
2019-01-26T07:44:02.223Z,24.27
2019-01-26T07:45:12.099Z,22.77
2019-01-26T07:46:18.793Z,24.23
2019-01-26T07:47:25.463Z,24.53
2019-01-26T07:48:32.954Z,24.47
2019-01-26T07:49:39.707Z,24.63
2019-01-26T07:50:46.725Z,23.37
2019-01-26T07:51:53.609Z,24.90
2019-01-26T07:53:00.569Z,23.60
2019-01-26T07:54:07.510Z,25.13
2019-01-26T07:55:14.731Z,23.80
2019-01-26T07:56:21.709Z,25.33
2019-01-26T07:57:28.705Z,24.20
2019-01-26T07:58:35.963Z,25.10
2019-01-26T07:59:42.967Z,23.77
2019-01-26T08:00:49.663Z,24.40
2019-01-26T08:01:58.230Z,24.10
2019-01-26T08:03:05.716Z,24.70
2019-01-26T08:04:12.412Z,25.03
2019-01-26T08:05:19.533Z,25.13
2019-01-26T08:06:26.552Z,24.93
2019-01-26T08:07:34.760Z,21.97
2019-01-26T08:08:41.498Z,21.90
2019-01-26T08:09:48.207Z,23.80
2019-01-26T08:10:55.204Z,24.77
2019-01-26T08:12:02.081Z,24.40
2019-01-26T08:13:09.595Z,23.40
2019-01-26T08:14:16.447Z,23.50
2019-01-26T08:15:30.598Z,24.00
2019-01-26T08:16:37.880Z,22.70
2019-01-26T08:17:44.836Z,22.57
2019-01-26T08:18:52.583Z,22.13
2019-01-26T08:19:59.464Z,23.30
2019-01-26T08:21:07.521Z,21.60
2019-01-26T08:22:14.274Z,21.50
2019-01-26T08:23:21.408Z,22.40
2019-01-26T08:24:28.719Z,22.63
2019-01-26T08:25:35.897Z,22.03
2019-01-26T08:26:43.485Z,21.40
2019-01-26T08:27:50.212Z,21.47
2019-01-26T08:28:56.846Z,22.60
2019-01-26T08:30:03.835Z,22.80
2019-01-26T08:31:11.799Z,22.90
2019-01-26T08:32:19.048Z,22.80
2019-01-26T08:33:26.063Z,22.70
2019-01-26T08:34:33.260Z,22.50
2019-01-26T08:35:40.206Z,21.90
2019-01-26T08:36:47.248Z,22.10
2019-01-26T08:37:54.053Z,21.97
2019-01-26T08:39:00.715Z,21.50
2019-01-26T08:40:08.889Z,23.00
2019-01-26T08:41:15.941Z,21.70
2019-01-26T08:42:23.241Z,22.37
2019-01-26T08:43:30.724Z,23.10
2019-01-26T08:44:37.822Z,20.90
2019-01-26T08:45:44.941Z,22.70
2019-01-26T08:46:52.255Z,21.97
2019-01-26T08:47:59.487Z,21.00
2019-01-26T08:49:06.440Z,21.33
2019-01-26T08:50:19.351Z,23.53
2019-01-26T08:51:26.475Z,23.23
2019-01-26T08:52:34.792Z,21.97
2019-01-26T08:53:41.937Z,22.83
2019-01-26T08:54:48.816Z,22.03
2019-01-26T08:55:56.683Z,22.00
2019-01-26T08:57:03.811Z,20.80
2019-01-26T08:58:10.665Z,23.00
2019-01-26T08:59:18.209Z,22.20
2019-01-26T09:00:29.801Z,22.43
2019-01-26T09:01:37.920Z,22.53
2019-01-26T09:03:10.070Z,21.73
2019-01-26T09:04:21.246Z,20.00
2019-01-26T09:05:29.796Z,20.83
2019-01-26T09:06:40.075Z,20.30
2019-01-26T09:07:46.930Z,23.93
2019-01-26T09:08:53.590Z,21.50
2019-01-26T09:10:00.323Z,21.23
2019-01-26T09:11:07.634Z,21.90
2019-01-26T09:12:14.657Z,22.43
2019-01-26T09:13:21.344Z,21.03
2019-01-26T09:14:28.564Z,22.17
2019-01-26T09:15:35.807Z,20.63
2019-01-26T09:16:43.235Z,23.40
2019-01-26T09:17:50.552Z,22.43
2019-01-26T09:18:57.496Z,22.13
2019-01-26T09:20:05.480Z,22.53
2019-01-26T09:21:13.191Z,21.77
2019-01-26T09:22:20.772Z,22.80
2019-01-26T09:23:27.598Z,22.80
2019-01-26T09:24:35.140Z,21.53
2019-01-26T09:25:42.350Z,23.80
2019-01-26T09:26:49.195Z,23.03
2019-01-26T09:27:56.133Z,25.10
2019-01-26T09:29:03.289Z,23.37
2019-01-26T09:30:10.865Z,23.93
2019-01-26T09:31:18.809Z,22.27
2019-01-26T09:32:26.322Z,23.80
2019-01-26T09:33:33.808Z,23.93
2019-01-26T09:34:40.880Z,24.40
2019-01-26T09:35:47.751Z,23.03
2019-01-26T09:36:54.734Z,22.33
2019-01-26T09:38:01.447Z,25.70
2019-01-26T09:39:11.873Z,23.40
2019-01-26T09:40:19.116Z,24.13
2019-01-26T09:41:25.866Z,22.63
2019-01-26T09:42:32.959Z,24.23
2019-01-26T09:43:40.280Z,22.50
2019-01-26T09:44:47.177Z,24.53
2019-01-26T09:45:54.556Z,25.07
2019-01-26T09:47:01.635Z,21.80
2019-01-26T09:48:08.969Z,23.40
2019-01-26T09:49:16.276Z,23.80
2019-01-26T09:50:23.567Z,24.60
2019-01-26T09:51:30.243Z,23.70
2019-01-26T09:52:37.176Z,24.63
2019-01-26T09:53:44.899Z,24.60
2019-01-26T09:54:52.847Z,23.00
2019-01-26T09:55:59.772Z,24.00
2019-01-26T09:57:06.871Z,25.17
2019-01-26T09:58:14.072Z,25.40
2019-01-26T09:59:20.784Z,23.77
2019-01-26T10:00:28.686Z,23.47
2019-01-26T10:01:35.478Z,27.50
2019-01-26T10:02:42.295Z,26.40
2019-01-26T10:03:49.490Z,24.67
2019-01-26T10:04:56.644Z,25.70
2019-01-26T10:06:03.439Z,26.10
2019-01-26T10:07:10.096Z,25.30
2019-01-26T10:08:16.745Z,26.47
2019-01-26T10:09:23.402Z,24.53
2019-01-26T10:10:30.303Z,26.50
2019-01-26T10:11:37.236Z,25.70
2019-01-26T10:12:44.618Z,26.00
2019-01-26T10:13:51.548Z,26.17
2019-01-26T10:14:58.371Z,25.30
2019-01-26T10:16:05.439Z,26.00
2019-01-26T10:17:12.888Z,25.70
2019-01-26T10:18:19.906Z,25.40
2019-01-26T10:19:27.583Z,26.80
2019-01-26T10:20:36.841Z,26.13
2019-01-26T10:21:44.201Z,24.10
2019-01-26T10:22:51.208Z,25.77
2019-01-26T10:23:58.210Z,26.60
2019-01-26T10:25:05.875Z,25.90
2019-01-26T10:26:12.557Z,24.80
2019-01-26T10:27:19.699Z,26.23
2019-01-26T10:28:26.636Z,27.07
2019-01-26T10:29:33.583Z,25.03
2019-01-26T10:30:45.247Z,25.70
2019-01-26T10:31:51.906Z,25.07
2019-01-26T10:32:58.983Z,24.90
2019-01-26T10:34:05.854Z,25.50
2019-01-26T10:35:12.814Z,22.80
2019-01-26T10:36:47.425Z,25.73
2019-01-26T10:37:54.141Z,22.10
2019-01-26T10:39:09.259Z,22.67
2019-01-26T10:40:34.056Z,22.63
2019-01-26T10:41:59.400Z,22.07
2019-01-26T10:43:06.823Z,23.33
2019-01-26T10:44:18.104Z,24.40
2019-01-26T10:45:24.792Z,21.83
2019-01-26T10:46:31.595Z,20.80
2019-01-26T10:47:38.279Z,21.93
2019-01-26T10:48:45.390Z,20.70
2019-01-26T10:49:52.126Z,22.17
2019-01-26T10:51:00.145Z,22.47
2019-01-26T10:52:08.076Z,19.73
2019-01-26T10:53:16.504Z,21.27
2019-01-26T10:54:23.231Z,20.90
2019-01-26T10:55:30.274Z,21.20
2019-01-26T10:56:36.940Z,21.33
2019-01-26T10:57:43.773Z,22.73
2019-01-26T10:58:50.743Z,22.10
2019-01-26T10:59:57.891Z,20.80
2019-01-26T11:01:05.007Z,22.87
2019-01-26T11:02:12.351Z,24.27
2019-01-26T11:03:19.615Z,24.93
2019-01-26T11:04:26.270Z,22.87
2019-01-26T11:05:33.026Z,22.37
2019-01-26T11:06:39.743Z,21.77
2019-01-26T11:07:46.370Z,23.00
2019-01-26T11:08:53.808Z,21.97
2019-01-26T11:10:00.723Z,22.50
2019-01-26T11:11:07.478Z,21.57
2019-01-26T11:12:14.146Z,21.87
2019-01-26T11:13:20.939Z,22.60
2019-01-26T11:14:27.977Z,23.37
2019-01-26T11:15:34.728Z,22.63
2019-01-26T11:16:41.793Z,25.50
2019-01-26T11:17:48.457Z,23.83
2019-01-26T11:18:55.251Z,25.00
2019-01-26T11:20:02.338Z,24.57
2019-01-26T11:21:08.996Z,24.43
2019-01-26T11:22:16.265Z,23.30
2019-01-26T11:23:22.903Z,23.03
2019-01-26T11:24:29.551Z,23.43
2019-01-26T11:25:36.687Z,24.20
2019-01-26T11:26:49.281Z,24.50
2019-01-26T11:27:52.218Z,24.07
2019-01-26T11:28:59.233Z,26.03
2019-01-26T11:30:08.062Z,23.40
2019-01-26T11:31:14.952Z,22.17
2019-01-26T11:32:22.038Z,22.87
2019-01-26T11:33:28.787Z,22.97
2019-01-26T11:34:35.551Z,21.62
2019-01-26T11:35:42.375Z,20.90
2019-01-26T11:36:49.044Z,24.33
2019-01-26T11:37:56.176Z,20.70
2019-01-26T11:39:04.174Z,21.43
2019-01-26T11:40:19.002Z,23.23
2019-01-26T11:41:25.678Z,22.40
2019-01-26T11:42:32.877Z,21.30
2019-01-26T11:43:39.577Z,23.57
2019-01-26T11:45:05.055Z,22.73
2019-01-26T11:46:33.404Z,22.50
2019-01-26T11:47:40.169Z,24.50
2019-01-26T11:48:48.798Z,23.50
2019-01-26T11:49:59.462Z,24.53
2019-01-26T11:51:25.281Z,24.17
2019-01-26T11:52:32.417Z,24.40
2019-01-26T11:53:39.268Z,26.62
2019-01-26T11:55:11.284Z,26.00
2019-01-26T11:56:32.608Z,27.13
2019-01-26T11:57:40.122Z,24.80
2019-01-26T11:58:47.235Z,24.93
2019-01-26T12:00:28.259Z,26.07
2019-01-26T12:01:49.403Z,23.30
2019-01-26T12:03:05.344Z,23.80
2019-01-26T12:04:34.863Z,24.47
2019-01-26T12:05:58.351Z,23.00
2019-01-26T12:07:11.263Z,24.23
2019-01-26T12:08:18.238Z,25.17
2019-01-26T12:09:24.872Z,24.53
2019-01-26T12:10:31.611Z,25.20
2019-01-26T12:11:38.324Z,26.07
2019-01-26T12:12:45.467Z,26.17
2019-01-26T12:13:52.501Z,26.90
2019-01-26T12:14:59.226Z,25.27
2019-01-26T12:16:06.204Z,26.33
2019-01-26T12:17:13.489Z,28.97
2019-01-26T12:18:20.109Z,28.90
2019-01-26T12:19:27.440Z,30.87
2019-01-26T12:20:34.459Z,30.30
2019-01-26T12:21:41.288Z,34.20
2019-01-26T12:22:48.048Z,32.43
2019-01-26T12:23:54.687Z,31.50
2019-01-26T12:25:01.618Z,34.17
2019-01-26T12:26:08.459Z,34.63
2019-01-26T12:27:15.254Z,34.93
2019-01-26T12:28:22.259Z,33.23
2019-01-26T12:29:29.098Z,36.97
2019-01-26T12:30:36.116Z,34.73
2019-01-26T12:31:42.806Z,34.77
2019-01-26T12:32:50.096Z,36.23
2019-01-26T12:33:57.101Z,35.13
2019-01-26T12:35:04.703Z,35.80
2019-01-26T12:36:11.443Z,36.27
2019-01-26T12:37:18.230Z,36.13
2019-01-26T12:38:25.275Z,37.17
2019-01-26T12:39:31.965Z,34.93
2019-01-26T12:40:38.734Z,37.93
2019-01-26T12:41:45.394Z,35.80
2019-01-26T12:42:52.046Z,36.10
2019-01-26T12:43:59.105Z,36.40
2019-01-26T12:45:08.342Z,36.33
2019-01-26T12:46:14.995Z,32.75
2019-01-26T12:47:22.087Z,34.97
2019-01-26T12:48:29.158Z,34.73
2019-01-26T12:49:36.156Z,35.63
2019-01-26T12:50:42.959Z,34.33
2019-01-26T12:52:08.668Z,33.50
2019-01-26T12:53:15.556Z,33.00
2019-01-26T12:54:22.269Z,30.30
2019-01-26T12:55:29.347Z,30.90
2019-01-26T12:56:35.995Z,30.07
2019-01-26T12:57:43.310Z,31.20
2019-01-26T12:58:49.971Z,28.97
2019-01-26T12:59:56.833Z,30.27
2019-01-26T13:01:03.631Z,27.83
2019-01-26T13:02:10.387Z,29.63
2019-01-26T13:03:18.594Z,27.93
2019-01-26T13:04:26.418Z,26.23
2019-01-26T13:05:33.705Z,25.50
2019-01-26T13:06:41.370Z,26.50
2019-01-26T13:07:48.481Z,23.83
2019-01-26T13:08:55.328Z,25.13
2019-01-26T13:10:01.963Z,23.20
2019-01-26T13:11:23.566Z,22.50
2019-01-26T13:12:30.587Z,24.77
2019-01-26T13:13:37.611Z,22.40
2019-01-26T13:14:44.488Z,22.10
2019-01-26T13:15:51.187Z,24.80
2019-01-26T13:16:58.168Z,22.90
2019-01-26T13:18:05.302Z,25.77
2019-01-26T13:19:12.333Z,23.73
2019-01-26T13:20:19.574Z,24.97
2019-01-26T13:21:26.280Z,28.93
2019-01-26T13:22:33.368Z,26.17
2019-01-26T13:23:40.368Z,27.00
2019-01-26T13:24:47.318Z,25.73
2019-01-26T13:25:54.178Z,26.90
2019-01-26T13:27:00.986Z,27.30
2019-01-26T13:28:07.766Z,28.70
2019-01-26T13:29:14.704Z,27.17
2019-01-26T13:30:21.895Z,25.30
2019-01-26T13:31:28.923Z,25.10
2019-01-26T13:32:36.307Z,26.50
2019-01-26T13:33:42.974Z,27.80
2019-01-26T13:34:50.124Z,26.60
2019-01-26T13:35:57.172Z,27.60
2019-01-26T13:37:03.894Z,26.60
2019-01-26T13:38:10.527Z,27.03
2019-01-26T13:39:17.235Z,26.07
2019-01-26T13:40:24.436Z,27.53
2019-01-26T13:41:31.218Z,26.30
2019-01-26T13:42:37.966Z,25.80
2019-01-26T13:43:44.636Z,24.90
2019-01-26T13:44:51.270Z,25.03
2019-01-26T13:45:57.952Z,25.50
2019-01-26T13:47:04.899Z,26.00
2019-01-26T13:48:11.861Z,23.37
2019-01-26T13:49:19.075Z,25.80
2019-01-26T13:50:26.075Z,27.27
2019-01-26T13:51:34.066Z,25.60
2019-01-26T13:52:41.169Z,24.73
2019-01-26T13:53:47.824Z,23.90
2019-01-26T13:54:54.840Z,22.13
2019-01-26T13:56:01.547Z,24.60
2019-01-26T13:57:08.211Z,22.00
2019-01-26T13:58:15.756Z,23.90
2019-01-26T13:59:22.767Z,23.07
2019-01-26T14:00:31.717Z,23.53
2019-01-26T14:01:38.440Z,20.63
2019-01-26T14:02:45.512Z,23.67
2019-01-26T14:03:52.340Z,23.10
2019-01-26T14:04:59.360Z,22.10
2019-01-26T14:06:06.757Z,23.03
2019-01-26T14:07:13.436Z,26.40
2019-01-26T14:08:20.103Z,22.67
2019-01-26T14:09:26.883Z,24.47
2019-01-26T14:10:34.199Z,24.03
2019-01-26T14:11:40.889Z,24.93
2019-01-26T14:12:47.917Z,22.07
2019-01-26T14:13:54.543Z,25.27
2019-01-26T14:15:01.540Z,23.57
2019-01-26T14:16:08.335Z,22.87
2019-01-26T14:17:14.998Z,24.63
2019-01-26T14:18:21.667Z,24.07
2019-01-26T14:19:28.466Z,21.30
2019-01-26T14:20:35.167Z,24.40
2019-01-26T14:21:41.884Z,24.20
2019-01-26T14:22:48.956Z,23.60
2019-01-26T14:23:56.224Z,22.97
2019-01-26T14:25:03.619Z,22.50
2019-01-26T14:26:10.772Z,24.95
2019-01-26T14:27:17.478Z,25.17
2019-01-26T14:28:24.145Z,23.97
2019-01-26T14:29:30.850Z,25.07
2019-01-26T14:30:42.185Z,27.43